Skip to main content.
Station Historical Data
 
Daily Summary for July 21, 2019 Units:  Both    English   Metric
« Previous Day
Next Day »
Daily Weekly Monthly Yearly Custom
  Current: High: Low: Average:
Temperature: 71.1 °F /  21.7 °C 73.9 °F /  23.3 °C 71.1 °F /  21.7 °C 73 °F /  22.8 °C
Dew Point: 68.4 °F /  20.2 °C 69.4 °F /  20.8 °C 68 °F /  20.0 °C 68.9 °F /  20.5 °C
Humidity: 91% 91% 85% 87%
Wind Speed: 14.4mph /  23.2km/h 15.9mph /  25.6km/h - 10.7mph /  17.3km/h
Wind Gust: 23mph /  37.0km/h 23mph /  37.0km/h - -
WindEast - - ENE
Pressure: 29.8 in /  1009.3 hPa 29.8 in /  1009.7 hPa 29.8 in /  1008.5 hPa -
Precipitation: 0 in /  0.0 mm      
Historical Graphs
 
 
Tabular Data for July 21, 2019
Time Temperature Dew Point Pressure Wind Wind Speed Wind Gust Humidity Rainfall Rate (Hourly) solar Conditions
00:04 73.9 °F /  23.3 °C 69.3 °F /  20.7 °C 29.8in /  1008.7hPa ENE 8.2mph /  13.2km/h 11.5mph /  18.5km/h 85% 0in /  0.0mm 0.00 W/m2 CLR
00:09 73.8 °F /  23.2 °C 69.1 °F /  20.6 °C 29.8in /  1008.7hPa NNE 11.1mph /  17.9km/h 17.3mph /  27.8km/h 85% 0in /  0.0mm 0.00 W/m2 CLR
00:14 73.8 °F /  23.2 °C 68.9 °F /  20.5 °C 29.8in /  1008.8hPa NNE 8mph /  12.9km/h 8.1mph /  13.0km/h 85% 0in /  0.0mm 0.00 W/m2 CLR
00:19 73.6 °F /  23.1 °C 69.3 °F /  20.7 °C 29.8in /  1008.7hPa NNE 11.3mph /  18.2km/h 12.7mph /  20.4km/h 86% 0in /  0.0mm 0.00 W/m2 CLR
00:24 73.6 °F /  23.1 °C 69.1 °F /  20.6 °C 29.8in /  1008.8hPa ENE 11.3mph /  18.2km/h 12.7mph /  20.4km/h 86% 0in /  0.0mm 0.00 W/m2 CLR
00:29 73.4 °F /  23.0 °C 69.1 °F /  20.6 °C 29.8in /  1008.8hPa NE 9.6mph /  15.4km/h 18.4mph /  29.6km/h 86% 0in /  0.0mm 0.00 W/m2 CLR
00:34 73.4 °F /  23.0 °C 69.1 °F /  20.6 °C 29.8in /  1008.7hPa NE 10mph /  16.1km/h 16.1mph /  25.9km/h 86% 0in /  0.0mm 0.00 W/m2 CLR
00:39 73.2 °F /  22.9 °C 68.9 °F /  20.5 °C 29.8in /  1008.6hPa NE 11.1mph /  17.9km/h 13.8mph /  22.2km/h 86% 0in /  0.0mm 0.00 W/m2 CLR
00:44 73.4 °F /  23.0 °C 69.1 °F /  20.6 °C 29.8in /  1008.7hPa NE 10.2mph /  16.4km/h 17.3mph /  27.8km/h 86% 0in /  0.0mm 0.00 W/m2 CLR
00:49 73.4 °F /  23.0 °C 69.1 °F /  20.6 °C 29.8in /  1008.7hPa NE 13.8mph /  22.2km/h 14mph /  22.5km/h 86% 0in /  0.0mm 0.00 W/m2 CLR
00:54 73.2 °F /  22.9 °C 68.9 °F /  20.5 °C 29.8in /  1008.6hPa NE 10mph /  16.1km/h 13.8mph /  22.2km/h 86% 0in /  0.0mm 0.00 W/m2 CLR
00:59 73.2 °F /  22.9 °C 68.9 °F /  20.5 °C 29.8in /  1008.6hPa NE 11.4mph /  18.3km/h 14mph /  22.5km/h 86% 0in /  0.0mm 0.00 W/m2 CLR
01:04 73.2 °F /  22.9 °C 68.7 °F /  20.4 °C 29.8in /  1008.6hPa NE 10.7mph /  17.2km/h 13.8mph /  22.2km/h 86% 0in /  0.0mm 0.00 W/m2 CLR
01:09 73.2 °F /  22.9 °C 68.7 °F /  20.4 °C 29.8in /  1008.6hPa NE 8mph /  12.9km/h 12.7mph /  20.4km/h 86% 0in /  0.0mm 0.00 W/m2 CLR
01:14 73.2 °F /  22.9 °C 68.7 °F /  20.4 °C 29.8in /  1008.6hPa NE 10.3mph /  16.6km/h 11.5mph /  18.5km/h 86% 0in /  0.0mm 0.00 W/m2 CLR
01:19 73.2 °F /  22.9 °C 68.9 °F /  20.5 °C 29.8in /  1008.8hPa NNE 9.8mph /  15.8km/h 12.7mph /  20.4km/h 86% 0in /  0.0mm 0.00 W/m2 CLR
01:24 73.2 °F /  22.9 °C 68.9 °F /  20.5 °C 29.8in /  1008.9hPa NE 8.2mph /  13.2km/h 13mph /  20.9km/h 86% 0in /  0.0mm 0.00 W/m2 CLR
01:29 73.4 °F /  23.0 °C 69.1 °F /  20.6 °C 29.8in /  1009.0hPa NE 11.2mph /  18.0km/h 12mph /  19.3km/h 86% 0in /  0.0mm 0.00 W/m2 CLR
01:34 73.4 °F /  23.0 °C 69.1 °F /  20.6 °C 29.8in /  1008.9hPa ENE 11.3mph /  18.2km/h 15mph /  24.1km/h 86% 0in /  0.0mm 0.00 W/m2 CLR
01:39 73.4 °F /  23.0 °C 69.1 °F /  20.6 °C 29.8in /  1008.9hPa ENE 11.4mph /  18.3km/h 13.8mph /  22.2km/h 86% 0in /  0.0mm 0.00 W/m2 CLR
01:44 73.4 °F /  23.0 °C 69.1 °F /  20.6 °C 29.8in /  1008.9hPa NE 12.9mph /  20.8km/h 16mph /  25.7km/h 86% 0in /  0.0mm 0.00 W/m2 CLR
01:49 73.4 °F /  23.0 °C 69.1 °F /  20.6 °C 29.8in /  1009.0hPa ENE 10.2mph /  16.4km/h 13.8mph /  22.2km/h 86% 0in /  0.0mm 0.00 W/m2 CLR
01:54 73.4 °F /  23.0 °C 69.1 °F /  20.6 °C 29.8in /  1009.0hPa NE 12.2mph /  19.6km/h 16.1mph /  25.9km/h 86% 0in /  0.0mm 0.00 W/m2 CLR
01:59 73.4 °F /  23.0 °C 69.1 °F /  20.6 °C 29.8in /  1009.2hPa NE 9.4mph /  15.1km/h 13.8mph /  22.2km/h 86% 0in /  0.0mm 0.00 W/m2 CLR
02:04 73.4 °F /  23.0 °C 69.1 °F /  20.6 °C 29.8in /  1009.2hPa ENE 10.3mph /  16.6km/h 13mph /  20.9km/h 86% 0in /  0.0mm 0.00 W/m2 CLR
02:09 73.4 °F /  23.0 °C 69.3 °F /  20.7 °C 29.8in /  1009.2hPa ENE 12.2mph /  19.6km/h 14mph /  22.5km/h 87% 0in /  0.0mm 0.00 W/m2 CLR
02:14 73.4 °F /  23.0 °C 69.3 °F /  20.7 °C 29.8in /  1009.2hPa ENE 6mph /  9.7km/h 12.7mph /  20.4km/h 87% 0in /  0.0mm 0.00 W/m2 CLR
02:19 73.2 °F /  22.9 °C 69.3 °F /  20.7 °C 29.8in /  1009.4hPa East 11.5mph /  18.5km/h 13.8mph /  22.2km/h 87% 0in /  0.0mm 0.00 W/m2 CLR
02:24 73.2 °F /  22.9 °C 69.3 °F /  20.7 °C 29.8in /  1009.4hPa ENE 11mph /  17.7km/h 18mph /  29.0km/h 87% 0in /  0.0mm 0.00 W/m2 CLR
02:29 73.2 °F /  22.9 °C 69.3 °F /  20.7 °C 29.8in /  1009.4hPa ENE 11.9mph /  19.1km/h 17.3mph /  27.8km/h 87% 0in /  0.0mm 0.00 W/m2 CLR
02:34 73.2 °F /  22.9 °C 69.3 °F /  20.7 °C 29.8in /  1009.3hPa ENE 11.4mph /  18.3km/h 15mph /  24.1km/h 87% 0in /  0.0mm 0.00 W/m2 CLR
02:39 73.2 °F /  22.9 °C 69.3 °F /  20.7 °C 29.8in /  1009.2hPa East 11.5mph /  18.5km/h 11.5mph /  18.5km/h 87% 0in /  0.0mm 0.00 W/m2 CLR
02:44 73.2 °F /  22.9 °C 69.4 °F /  20.8 °C 29.8in /  1008.9hPa East 8.1mph /  13.0km/h 10.4mph /  16.7km/h 88% 0in /  0.0mm 0.00 W/m2 CLR
02:49 73.2 °F /  22.9 °C 69.4 °F /  20.8 °C 29.8in /  1008.7hPa ENE 9.1mph /  14.6km/h 13.8mph /  22.2km/h 88% 0in /  0.0mm 0.00 W/m2 CLR
02:54 73.2 °F /  22.9 °C 69.4 °F /  20.8 °C 29.8in /  1008.6hPa East 11.7mph /  18.8km/h 17mph /  27.4km/h 88% 0in /  0.0mm 0.00 W/m2 CLR
02:59 73.2 °F /  22.9 °C 69.4 °F /  20.8 °C 29.8in /  1008.5hPa East 14.8mph /  23.8km/h 16.1mph /  25.9km/h 88% 0in /  0.0mm 0.00 W/m2 CLR
03:04 73.2 °F /  22.9 °C 69.4 °F /  20.8 °C 29.8in /  1008.7hPa East 13.6mph /  21.9km/h 16.1mph /  25.9km/h 88% 0in /  0.0mm 0.00 W/m2 CLR
03:09 73.2 °F /  22.9 °C 69.4 °F /  20.8 °C 29.8in /  1009.1hPa NE 10.6mph /  17.1km/h 15mph /  24.1km/h 88% 0in /  0.0mm 0.00 W/m2 CLR
03:14 73 °F /  22.8 °C 69.3 °F /  20.7 °C 29.8in /  1009.3hPa East 13.8mph /  22.2km/h 17.3mph /  27.8km/h 88% 0in /  0.0mm 0.00 W/m2 CLR
03:19 73 °F /  22.8 °C 69.3 °F /  20.7 °C 29.8in /  1008.9hPa ENE 10.6mph /  17.1km/h 11.5mph /  18.5km/h 88% 0in /  0.0mm 0.00 W/m2 CLR
03:24 72.9 °F /  22.7 °C 69.1 °F /  20.6 °C 29.8in /  1008.7hPa ENE 15.9mph /  25.6km/h 17.3mph /  27.8km/h 88% 0in /  0.0mm 0.00 W/m2 CLR
03:29 72.7 °F /  22.6 °C 68.9 °F /  20.5 °C 29.8in /  1008.8hPa ENE 11.5mph /  18.5km/h 16.1mph /  25.9km/h 88% 0in /  0.0mm 0.00 W/m2 CLR
03:34 72.7 °F /  22.6 °C 68.7 °F /  20.4 °C 29.8in /  1008.9hPa East 9.7mph /  15.6km/h 13.8mph /  22.2km/h 88% 0in /  0.0mm 0.00 W/m2 CLR
03:39 72.5 °F /  22.5 °C 68.7 °F /  20.4 °C 29.8in /  1009.4hPa East 8.7mph /  14.0km/h 11.5mph /  18.5km/h 88% 0in /  0.0mm 0.00 W/m2 CLR
03:44 72.5 °F /  22.5 °C 68.7 °F /  20.4 °C 29.8in /  1009.6hPa ENE 8.1mph /  13.0km/h 10.4mph /  16.7km/h 88% 0in /  0.0mm 0.00 W/m2 CLR
03:49 72.3 °F /  22.4 °C 68.5 °F /  20.3 °C 29.8in /  1009.5hPa NE 10.4mph /  16.7km/h 14mph /  22.5km/h 88% 0in /  0.0mm 0.00 W/m2 CLR
03:54 72.3 °F /  22.4 °C 68.4 °F /  20.2 °C 29.8in /  1009.7hPa NE 8.1mph /  13.0km/h 11.5mph /  18.5km/h 87% 0in /  0.0mm 0.00 W/m2 CLR
03:59 72.3 °F /  22.4 °C 68.4 °F /  20.2 °C 29.8in /  1009.7hPa NE 9.7mph /  15.6km/h 12.7mph /  20.4km/h 87% 0in /  0.0mm 0.00 W/m2 CLR
04:04 72.1 °F /  22.3 °C 68.2 °F /  20.1 °C 29.8in /  1009.5hPa NE 7.3mph /  11.7km/h 11.5mph /  18.5km/h 87% 0in /  0.0mm 0.00 W/m2 CLR
04:09 72.1 °F /  22.3 °C 68.4 °F /  20.2 °C 29.8in /  1009.6hPa NE 9.8mph /  15.8km/h 14mph /  22.5km/h 88% 0in /  0.0mm 0.00 W/m2 CLR
04:14 71.8 °F /  22.1 °C 68.4 °F /  20.2 °C 29.8in /  1009.5hPa NE 9.1mph /  14.6km/h 11.5mph /  18.5km/h 89% 0in /  0.0mm 0.00 W/m2 CLR
04:19 71.4 °F /  21.9 °C 68.4 °F /  20.2 °C 29.8in /  1009.4hPa NE 10.1mph /  16.3km/h 13.8mph /  22.2km/h 90% 0in /  0.0mm 0.00 W/m2 CLR
04:24 71.1 °F /  21.7 °C 68 °F /  20.0 °C 29.8in /  1009.4hPa ENE 13mph /  20.9km/h 16mph /  25.7km/h 90% 0in /  0.0mm 0.00 W/m2 CLR
04:29 71.1 °F /  21.7 °C 68.2 °F /  20.1 °C 29.8in /  1009.4hPa NE 11.5mph /  18.5km/h 16.1mph /  25.9km/h 91% 0in /  0.0mm 0.00 W/m2 CLR
04:34 71.1 °F /  21.7 °C 68.4 °F /  20.2 °C 29.8in /  1009.4hPa ENE 15.1mph /  24.3km/h 19.6mph /  31.5km/h 91% 0in /  0.0mm 0.00 W/m2 CLR
04:39 71.1 °F /  21.7 °C 68.4 °F /  20.2 °C 29.8in /  1009.3hPa East 14.4mph /  23.2km/h 23mph /  37.0km/h 91% 0in /  0.0mm 0.00 W/m2 CLR
Friend Weather